sensor_id;sensor_type;location;lat;lon;timestamp;pressure;altitude;pressure_sealevel;temperature;humidity
61296;BME280;47168;48.104;20.730;2022-08-19T00:00:48;99519.13;;;19.30;84.61
61296;BME280;47168;48.104;20.730;2022-08-19T00:03:13;99527.03;;;19.23;84.05
61296;BME280;47168;48.104;20.730;2022-08-19T00:05:39;99531.06;;;19.11;86.84
61296;BME280;47168;48.104;20.730;2022-08-19T00:08:05;99532.13;;;18.93;88.17
61296;BME280;47168;48.104;20.730;2022-08-19T00:10:30;99527.94;;;18.91;85.06
61296;BME280;47168;48.104;20.730;2022-08-19T00:12:56;99538.31;;;18.94;85.88
61296;BME280;47168;48.104;20.730;2022-08-19T00:15:21;99529.94;;;18.97;87.20
61296;BME280;47168;48.104;20.730;2022-08-19T00:17:47;99532.28;;;19.00;85.64
61296;BME280;47168;48.104;20.730;2022-08-19T00:20:19;99533.09;;;19.00;86.51
61296;BME280;47168;48.104;20.730;2022-08-19T00:22:46;99537.13;;;18.96;86.00
61296;BME280;47168;48.104;20.730;2022-08-19T00:25:13;99537.63;;;19.00;84.51
61296;BME280;47168;48.104;20.730;2022-08-19T00:27:39;99535.09;;;19.06;85.23
61296;BME280;47168;48.104;20.730;2022-08-19T00:30:05;99549.47;;;18.97;86.37
61296;BME280;47168;48.104;20.730;2022-08-19T00:32:31;99554.16;;;18.95;86.44
61296;BME280;47168;48.104;20.730;2022-08-19T00:34:59;99540.00;;;18.86;87.69
61296;BME280;47168;48.104;20.730;2022-08-19T00:37:25;99558.06;;;18.84;88.09
61296;BME280;47168;48.104;20.730;2022-08-19T00:39:52;99549.19;;;18.84;87.89
61296;BME280;47168;48.104;20.730;2022-08-19T00:42:21;99540.34;;;18.83;87.74
61296;BME280;47168;48.104;20.730;2022-08-19T00:44:47;99550.50;;;18.80;87.79
61296;BME280;47168;48.104;20.730;2022-08-19T00:47:13;99547.50;;;18.75;87.56
61296;BME280;47168;48.104;20.730;2022-08-19T00:49:45;99545.66;;;18.67;88.56
61296;BME280;47168;48.104;20.730;2022-08-19T00:52:23;99544.50;;;18.69;88.22
61296;BME280;47168;48.104;20.730;2022-08-19T00:54:49;99541.69;;;18.55;88.69
61296;BME280;47168;48.104;20.730;2022-08-19T00:57:20;99542.50;;;18.63;88.36
61296;BME280;47168;48.104;20.730;2022-08-19T00:59:51;99542.84;;;18.60;88.17
61296;BME280;47168;48.104;20.730;2022-08-19T01:02:19;99552.22;;;18.64;88.68
61296;BME280;47168;48.104;20.730;2022-08-19T01:04:44;99555.53;;;18.58;88.21
61296;BME280;47168;48.104;20.730;2022-08-19T01:07:10;99559.22;;;18.49;89.34
61296;BME280;47168;48.104;20.730;2022-08-19T01:09:35;99557.22;;;18.43;88.66
61296;BME280;47168;48.104;20.730;2022-08-19T01:12:02;99549.38;;;18.41;90.62
61296;BME280;47168;48.104;20.730;2022-08-19T01:14:29;99537.66;;;18.42;91.00
61296;BME280;47168;48.104;20.730;2022-08-19T01:16:55;99534.19;;;18.42;90.08
61296;BME280;47168;48.104;20.730;2022-08-19T01:19:29;99531.50;;;18.42;90.13
61296;BME280;47168;48.104;20.730;2022-08-19T01:22:03;99525.50;;;18.40;89.65
61296;BME280;47168;48.104;20.730;2022-08-19T01:24:30;99527.31;;;18.47;89.28
61296;BME280;47168;48.104;20.730;2022-08-19T01:26:56;99527.16;;;18.41;88.46
61296;BME280;47168;48.104;20.730;2022-08-19T01:29:22;99524.66;;;18.39;87.54
61296;BME280;47168;48.104;20.730;2022-08-19T01:31:47;99524.66;;;18.39;88.06
61296;BME280;47168;48.104;20.730;2022-08-19T01:34:14;99526.00;;;18.43;87.73
61296;BME280;47168;48.104;20.730;2022-08-19T01:36:42;99520.00;;;18.41;88.48
61296;BME280;47168;48.104;20.730;2022-08-19T01:39:14;99517.00;;;18.44;88.82
61296;BME280;47168;48.104;20.730;2022-08-19T01:41:41;99513.94;;;18.47;88.75
61296;BME280;47168;48.104;20.730;2022-08-19T01:44:08;99509.63;;;18.38;89.46
61296;BME280;47168;48.104;20.730;2022-08-19T01:46:34;99504.13;;;18.23;90.14
61296;BME280;47168;48.104;20.730;2022-08-19T01:49:00;99509.81;;;18.12;90.89
61296;BME280;47168;48.104;20.730;2022-08-19T01:51:26;99517.00;;;18.20;90.28
61296;BME280;47168;48.104;20.730;2022-08-19T01:53:52;99512.16;;;18.15;90.18
61296;BME280;47168;48.104;20.730;2022-08-19T01:56:18;99507.63;;;18.15;90.71
61296;BME280;47168;48.104;20.730;2022-08-19T01:58:49;99505.63;;;18.01;90.67
61296;BME280;47168;48.104;20.730;2022-08-19T02:01:16;99502.28;;;17.99;91.31
61296;BME280;47168;48.104;20.730;2022-08-19T02:03:42;99499.78;;;17.89;91.83
61296;BME280;47168;48.104;20.730;2022-08-19T02:06:07;99496.06;;;17.82;92.25
61296;BME280;47168;48.104;20.730;2022-08-19T02:08:36;99503.25;;;17.82;92.69
61296;BME280;47168;48.104;20.730;2022-08-19T02:11:02;99495.06;;;17.75;91.63
61296;BME280;47168;48.104;20.730;2022-08-19T02:13:28;99489.22;;;17.71;92.00
61296;BME280;47168;48.104;20.730;2022-08-19T02:15:54;99494.38;;;17.65;92.97
61296;BME280;47168;48.104;20.730;2022-08-19T02:18:19;99493.38;;;17.57;93.32
61296;BME280;47168;48.104;20.730;2022-08-19T02:20:45;99492.16;;;17.52;93.29
61296;BME280;47168;48.104;20.730;2022-08-19T02:23:13;99505.84;;;17.57;93.69
61296;BME280;47168;48.104;20.730;2022-08-19T02:25:39;99506.69;;;17.49;92.32
61296;BME280;47168;48.104;20.730;2022-08-19T02:28:05;99506.16;;;17.54;93.19
61296;BME280;47168;48.104;20.730;2022-08-19T02:30:30;99499.84;;;17.55;92.59
61296;BME280;47168;48.104;20.730;2022-08-19T02:32:56;99517.19;;;17.51;93.18
61296;BME280;47168;48.104;20.730;2022-08-19T02:35:22;99512.03;;;17.49;93.51
61296;BME280;47168;48.104;20.730;2022-08-19T02:37:48;99513.50;;;17.52;91.75
61296;BME280;47168;48.104;20.730;2022-08-19T02:40:32;99499.50;;;17.50;93.18
61296;BME280;47168;48.104;20.730;2022-08-19T02:43:05;99503.16;;;17.49;93.85
61296;BME280;47168;48.104;20.730;2022-08-19T02:45:37;99504.50;;;17.45;96.15
61296;BME280;47168;48.104;20.730;2022-08-19T02:48:04;99484.50;;;17.49;94.56
61296;BME280;47168;48.104;20.730;2022-08-19T02:50:30;99495.00;;;17.50;95.56
61296;BME280;47168;48.104;20.730;2022-08-19T02:52:56;99506.84;;;17.48;95.10
61296;BME280;47168;48.104;20.730;2022-08-19T02:55:21;99498.50;;;17.43;96.09
61296;BME280;47168;48.104;20.730;2022-08-19T02:57:47;99508.47;;;17.40;95.19
61296;BME280;47168;48.104;20.730;2022-08-19T03:00:14;99505.34;;;17.53;94.49
61296;BME280;47168;48.104;20.730;2022-08-19T03:02:40;99517.00;;;17.44;94.68
61296;BME280;47168;48.104;20.730;2022-08-19T03:05:08;99516.00;;;17.45;93.74
61296;BME280;47168;48.104;20.730;2022-08-19T03:07:35;99512.84;;;17.50;94.57
61296;BME280;47168;48.104;20.730;2022-08-19T03:10:00;99524.34;;;17.50;93.95
61296;BME280;47168;48.104;20.730;2022-08-19T03:12:26;99535.50;;;17.37;95.23
61296;BME280;47168;48.104;20.730;2022-08-19T03:14:51;99547.47;;;17.33;94.67
61296;BME280;47168;48.104;20.730;2022-08-19T03:17:18;99540.78;;;17.29;95.22
61296;BME280;47168;48.104;20.730;2022-08-19T03:19:43;99552.44;;;17.28;94.83
61296;BME280;47168;48.104;20.730;2022-08-19T03:22:09;99555.78;;;17.30;94.25
61296;BME280;47168;48.104;20.730;2022-08-19T03:24:35;99556.81;;;17.37;96.82
61296;BME280;47168;48.104;20.730;2022-08-19T03:27:00;99557.47;;;17.31;96.81
61296;BME280;47168;48.104;20.730;2022-08-19T03:29:28;99558.44;;;17.30;94.48
61296;BME280;47168;48.104;20.730;2022-08-19T03:31:54;99554.31;;;17.36;96.83
61296;BME280;47168;48.104;20.730;2022-08-19T03:34:23;99558.47;;;17.38;96.31
61296;BME280;47168;48.104;20.730;2022-08-19T03:36:52;99555.97;;;17.37;96.09
61296;BME280;47168;48.104;20.730;2022-08-19T03:39:18;99554.78;;;17.31;95.10
61296;BME280;47168;48.104;20.730;2022-08-19T03:41:45;99552.13;;;17.31;94.69
61296;BME280;47168;48.104;20.730;2022-08-19T03:44:17;99553.41;;;17.27;95.44
61296;BME280;47168;48.104;20.730;2022-08-19T03:46:43;99543.41;;;17.21;95.12
61296;BME280;47168;48.104;20.730;2022-08-19T03:49:09;99562.44;;;17.26;95.81
61296;BME280;47168;48.104;20.730;2022-08-19T03:51:37;99548.38;;;17.16;96.49
61296;BME280;47168;48.104;20.730;2022-08-19T03:54:06;99554.09;;;17.21;96.52
61296;BME280;47168;48.104;20.730;2022-08-19T03:56:34;99548.06;;;17.19;96.15
61296;BME280;47168;48.104;20.730;2022-08-19T03:59:00;99563.88;;;17.20;96.42
61296;BME280;47168;48.104;20.730;2022-08-19T04:01:27;99569.06;;;17.22;96.43
61296;BME280;47168;48.104;20.730;2022-08-19T04:03:55;99573.78;;;17.28;96.42
61296;BME280;47168;48.104;20.730;2022-08-19T04:06:26;99579.31;;;17.35;95.66
61296;BME280;47168;48.104;20.730;2022-08-19T04:08:53;99583.31;;;17.31;95.36
61296;BME280;47168;48.104;20.730;2022-08-19T04:11:25;99578.78;;;17.31;95.22
61296;BME280;47168;48.104;20.730;2022-08-19T04:13:52;99573.81;;;17.36;94.44
61296;BME280;47168;48.104;20.730;2022-08-19T04:16:22;99566.00;;;17.43;96.35
61296;BME280;47168;48.104;20.730;2022-08-19T04:18:48;99569.53;;;17.52;95.86
61296;BME280;47168;48.104;20.730;2022-08-19T04:21:19;99578.22;;;17.62;97.01
61296;BME280;47168;48.104;20.730;2022-08-19T04:23:46;99579.28;;;17.69;96.77
61296;BME280;47168;48.104;20.730;2022-08-19T04:26:16;99580.28;;;17.76;94.91
61296;BME280;47168;48.104;20.730;2022-08-19T04:28:43;99572.69;;;17.90;93.51
61296;BME280;47168;48.104;20.730;2022-08-19T04:31:17;99575.38;;;17.98;93.15
61296;BME280;47168;48.104;20.730;2022-08-19T04:33:42;99595.56;;;18.09;93.05
61296;BME280;47168;48.104;20.730;2022-08-19T04:36:15;99594.81;;;18.49;90.79
61296;BME280;47168;48.104;20.730;2022-08-19T04:38:41;99589.41;;;18.82;87.59
61296;BME280;47168;48.104;20.730;2022-08-19T04:41:06;99584.03;;;19.15;86.59
61296;BME280;47168;48.104;20.730;2022-08-19T04:43:51;99588.66;;;19.38;84.21
61296;BME280;47168;48.104;20.730;2022-08-19T04:46:16;99584.56;;;19.58;83.64
61296;BME280;47168;48.104;20.730;2022-08-19T04:48:42;99587.34;;;19.73;83.69
61296;BME280;47168;48.104;20.730;2022-08-19T04:51:10;99587.38;;;19.65;84.16
61296;BME280;47168;48.104;20.730;2022-08-19T04:53:39;99590.25;;;19.55;84.71
61296;BME280;47168;48.104;20.730;2022-08-19T04:56:12;99588.13;;;19.42;84.99
61296;BME280;47168;48.104;20.730;2022-08-19T04:58:40;99584.47;;;19.35;86.29
61296;BME280;47168;48.104;20.730;2022-08-19T05:01:08;99591.13;;;19.39;86.60
61296;BME280;47168;48.104;20.730;2022-08-19T05:03:35;99588.84;;;19.36;87.15
61296;BME280;47168;48.104;20.730;2022-08-19T05:06:09;99584.13;;;19.38;87.23
61296;BME280;47168;48.104;20.730;2022-08-19T05:08:36;99581.28;;;19.40;86.91
61296;BME280;47168;48.104;20.730;2022-08-19T05:13:34;99578.91;;;19.53;88.25
61296;BME280;47168;48.104;20.730;2022-08-19T05:16:00;99581.38;;;19.63;87.72
61296;BME280;47168;48.104;20.730;2022-08-19T05:18:25;99584.84;;;19.72;87.44
61296;BME280;47168;48.104;20.730;2022-08-19T05:21:24;99591.31;;;19.86;87.99
61296;BME280;47168;48.104;20.730;2022-08-19T05:24:08;99583.88;;;19.96;87.68
61296;BME280;47168;48.104;20.730;2022-08-19T05:26:36;99577.13;;;20.08;87.45
61296;BME280;47168;48.104;20.730;2022-08-19T05:29:02;99575.69;;;20.21;85.97
61296;BME280;47168;48.104;20.730;2022-08-19T05:31:28;99564.72;;;20.30;86.03
61296;BME280;47168;48.104;20.730;2022-08-19T05:33:54;99566.44;;;20.46;84.29
61296;BME280;47168;48.104;20.730;2022-08-19T05:36:21;99576.34;;;20.69;82.97
61296;BME280;47168;48.104;20.730;2022-08-19T05:38:46;99572.56;;;20.78;82.72
61296;BME280;47168;48.104;20.730;2022-08-19T05:41:14;99583.50;;;20.91;83.35
61296;BME280;47168;48.104;20.730;2022-08-19T05:43:40;99581.94;;;21.12;80.71
61296;BME280;47168;48.104;20.730;2022-08-19T05:46:06;99581.66;;;21.22;80.81
61296;BME280;47168;48.104;20.730;2022-08-19T05:48:33;99585.53;;;21.34;82.24
61296;BME280;47168;48.104;20.730;2022-08-19T05:51:03;99574.53;;;21.44;79.52
61296;BME280;47168;48.104;20.730;2022-08-19T05:53:29;99589.59;;;21.60;79.96
61296;BME280;47168;48.104;20.730;2022-08-19T05:55:54;99598.88;;;21.72;80.13
61296;BME280;47168;48.104;20.730;2022-08-19T05:58:20;99606.91;;;21.87;80.64
61296;BME280;47168;48.104;20.730;2022-08-19T06:00:45;99606.59;;;22.18;77.43
61296;BME280;47168;48.104;20.730;2022-08-19T06:03:11;99605.81;;;22.39;77.40
61296;BME280;47168;48.104;20.730;2022-08-19T06:05:36;99619.06;;;22.41;76.28
61296;BME280;47168;48.104;20.730;2022-08-19T06:08:02;99616.25;;;22.49;78.05
61296;BME280;47168;48.104;20.730;2022-08-19T06:10:28;99611.44;;;22.66;76.63
61296;BME280;47168;48.104;20.730;2022-08-19T06:12:53;99608.22;;;22.78;75.59
61296;BME280;47168;48.104;20.730;2022-08-19T06:15:19;99605.81;;;22.89;73.20
61296;BME280;47168;48.104;20.730;2022-08-19T06:17:47;99609.44;;;23.03;72.19
61296;BME280;47168;48.104;20.730;2022-08-19T06:20:14;99592.34;;;23.11;71.51
61296;BME280;47168;48.104;20.730;2022-08-19T06:22:48;99603.63;;;23.28;71.24
61296;BME280;47168;48.104;20.730;2022-08-19T06:25:17;99606.22;;;23.49;69.41
61296;BME280;47168;48.104;20.730;2022-08-19T06:27:43;99591.44;;;23.80;67.10
61296;BME280;47168;48.104;20.730;2022-08-19T06:30:09;99582.41;;;23.95;67.52
61296;BME280;47168;48.104;20.730;2022-08-19T06:32:36;99584.34;;;24.21;65.02
61296;BME280;47168;48.104;20.730;2022-08-19T06:35:04;99584.13;;;24.22;64.12
61296;BME280;47168;48.104;20.730;2022-08-19T06:37:30;99593.06;;;24.43;64.45
61296;BME280;47168;48.104;20.730;2022-08-19T06:39:55;99596.38;;;24.52;63.69
61296;BME280;47168;48.104;20.730;2022-08-19T06:42:20;99598.72;;;24.62;63.21
61296;BME280;47168;48.104;20.730;2022-08-19T06:44:48;99594.97;;;24.69;61.68
61296;BME280;47168;48.104;20.730;2022-08-19T06:47:19;99595.19;;;24.74;61.68
61296;BME280;47168;48.104;20.730;2022-08-19T06:49:45;99589.38;;;24.84;60.95
61296;BME280;47168;48.104;20.730;2022-08-19T06:52:11;99589.56;;;24.89;61.76
61296;BME280;47168;48.104;20.730;2022-08-19T06:54:41;99598.47;;;24.96;62.16
61296;BME280;47168;48.104;20.730;2022-08-19T06:57:10;99601.13;;;25.23;60.62
61296;BME280;47168;48.104;20.730;2022-08-19T06:59:40;99601.56;;;25.27;61.01
61296;BME280;47168;48.104;20.730;2022-08-19T07:02:05;99603.25;;;25.28;60.23
61296;BME280;47168;48.104;20.730;2022-08-19T07:04:32;99605.28;;;25.32;61.89
61296;BME280;47168;48.104;20.730;2022-08-19T07:07:03;99600.91;;;25.38;59.14
61296;BME280;47168;48.104;20.730;2022-08-19T07:09:31;99602.75;;;25.51;58.60
61296;BME280;47168;48.104;20.730;2022-08-19T07:11:57;99602.75;;;25.58;58.73
61296;BME280;47168;48.104;20.730;2022-08-19T07:14:26;99598.38;;;25.57;58.27
61296;BME280;47168;48.104;20.730;2022-08-19T07:16:55;99595.47;;;25.58;59.27
61296;BME280;47168;48.104;20.730;2022-08-19T07:19:22;99596.06;;;25.60;57.20
61296;BME280;47168;48.104;20.730;2022-08-19T07:21:49;99597.00;;;25.79;56.93
61296;BME280;47168;48.104;20.730;2022-08-19T07:24:19;99595.34;;;25.85;57.23
61296;BME280;47168;48.104;20.730;2022-08-19T07:26:47;99596.09;;;26.05;56.31
61296;BME280;47168;48.104;20.730;2022-08-19T07:29:13;99595.00;;;26.13;56.28
61296;BME280;47168;48.104;20.730;2022-08-19T07:31:39;99590.59;;;26.19;56.16
61296;BME280;47168;48.104;20.730;2022-08-19T07:34:07;99590.34;;;26.27;56.09
61296;BME280;47168;48.104;20.730;2022-08-19T07:36:34;99587.84;;;26.25;56.47
61296;BME280;47168;48.104;20.730;2022-08-19T07:39:07;99599.81;;;26.43;55.57
61296;BME280;47168;48.104;20.730;2022-08-19T07:41:34;99594.16;;;26.44;55.62
61296;BME280;47168;48.104;20.730;2022-08-19T07:44:00;99585.25;;;26.37;55.18
61296;BME280;47168;48.104;20.730;2022-08-19T07:46:32;99598.19;;;26.35;55.50
61296;BME280;47168;48.104;20.730;2022-08-19T07:48:59;99587.69;;;26.46;55.72
61296;BME280;47168;48.104;20.730;2022-08-19T07:51:26;99597.66;;;26.52;53.99
61296;BME280;47168;48.104;20.730;2022-08-19T07:53:52;99604.66;;;26.59;54.68
61296;BME280;47168;48.104;20.730;2022-08-19T07:56:19;99598.09;;;26.99;53.33
61296;BME280;47168;48.104;20.730;2022-08-19T07:58:46;99588.09;;;26.99;53.61
61296;BME280;47168;48.104;20.730;2022-08-19T08:01:15;99585.22;;;26.94;54.04
61296;BME280;47168;48.104;20.730;2022-08-19T08:03:42;99578.88;;;27.26;51.58
61296;BME280;47168;48.104;20.730;2022-08-19T08:06:26;99591.13;;;27.10;52.06
61296;BME280;47168;48.104;20.730;2022-08-19T08:09:11;99584.25;;;27.51;52.12
61296;BME280;47168;48.104;20.730;2022-08-19T08:11:42;99587.19;;;27.98;50.26
61296;BME280;47168;48.104;20.730;2022-08-19T08:14:17;99586.41;;;28.09;52.44
61296;BME280;47168;48.104;20.730;2022-08-19T08:16:43;99580.59;;;28.48;50.58
61296;BME280;47168;48.104;20.730;2022-08-19T08:19:12;99567.03;;;28.36;49.43
61296;BME280;47168;48.104;20.730;2022-08-19T08:21:40;99559.34;;;28.33;49.02
61296;BME280;47168;48.104;20.730;2022-08-19T08:24:06;99558.41;;;28.39;50.82
61296;BME280;47168;48.104;20.730;2022-08-19T08:26:35;99571.34;;;28.91;47.43
61296;BME280;47168;48.104;20.730;2022-08-19T08:29:01;99570.31;;;29.56;46.87
61296;BME280;47168;48.104;20.730;2022-08-19T08:31:26;99560.81;;;29.42;45.63
61296;BME280;47168;48.104;20.730;2022-08-19T08:33:52;99560.03;;;29.59;46.10
61296;BME280;47168;48.104;20.730;2022-08-19T08:36:18;99567.50;;;29.92;46.19
61296;BME280;47168;48.104;20.730;2022-08-19T08:38:44;99561.88;;;30.27;44.82
61296;BME280;47168;48.104;20.730;2022-08-19T08:43:46;99564.19;;;31.03;42.38
61296;BME280;47168;48.104;20.730;2022-08-19T08:46:41;99561.00;;;30.39;42.58
61296;BME280;47168;48.104;20.730;2022-08-19T08:52:02;99562.84;;;30.21;45.02
61296;BME280;47168;48.104;20.730;2022-08-19T08:54:34;99557.19;;;30.57;42.43
61296;BME280;47168;48.104;20.730;2022-08-19T08:57:04;99550.63;;;30.92;42.83
61296;BME280;47168;48.104;20.730;2022-08-19T08:59:33;99570.47;;;30.70;42.33
61296;BME280;47168;48.104;20.730;2022-08-19T09:02:00;99533.66;;;30.34;42.82
61296;BME280;47168;48.104;20.730;2022-08-19T09:04:26;99556.47;;;30.61;42.33
61296;BME280;47168;48.104;20.730;2022-08-19T09:09:41;99545.78;;;30.77;43.13
61296;BME280;47168;48.104;20.730;2022-08-19T09:12:25;99542.81;;;30.78;41.84
61296;BME280;47168;48.104;20.730;2022-08-19T09:15:15;99533.25;;;30.59;41.26
61296;BME280;47168;48.104;20.730;2022-08-19T09:17:43;99547.59;;;31.27;41.95
61296;BME280;47168;48.104;20.730;2022-08-19T09:22:39;99540.31;;;31.33;42.32
61296;BME280;47168;48.104;20.730;2022-08-19T09:25:08;99544.94;;;31.76;40.93
61296;BME280;47168;48.104;20.730;2022-08-19T09:27:36;99543.31;;;31.81;39.01
61296;BME280;47168;48.104;20.730;2022-08-19T09:30:04;99530.41;;;32.25;37.84
61296;BME280;47168;48.104;20.730;2022-08-19T09:32:30;99520.88;;;32.28;38.31
61296;BME280;47168;48.104;20.730;2022-08-19T09:34:56;99502.13;;;32.79;38.38
61296;BME280;47168;48.104;20.730;2022-08-19T09:37:24;99514.94;;;33.21;37.50
61296;BME280;47168;48.104;20.730;2022-08-19T09:39:50;99521.63;;;33.56;36.59
61296;BME280;47168;48.104;20.730;2022-08-19T09:42:15;99516.66;;;33.43;35.56
61296;BME280;47168;48.104;20.730;2022-08-19T09:44:41;99514.72;;;32.80;36.32
61296;BME280;47168;48.104;20.730;2022-08-19T09:47:09;99506.28;;;33.55;35.88
61296;BME280;47168;48.104;20.730;2022-08-19T09:49:34;99507.75;;;33.89;34.22
61296;BME280;47168;48.104;20.730;2022-08-19T09:52:00;99506.16;;;34.24;33.33
61296;BME280;47168;48.104;20.730;2022-08-19T09:54:26;99501.94;;;33.65;33.96
61296;BME280;47168;48.104;20.730;2022-08-19T09:56:55;99487.78;;;34.14;33.90
61296;BME280;47168;48.104;20.730;2022-08-19T09:59:22;99492.72;;;34.12;34.50
61296;BME280;47168;48.104;20.730;2022-08-19T10:01:48;99495.16;;;33.93;33.83
61296;BME280;47168;48.104;20.730;2022-08-19T10:04:13;99477.66;;;33.84;34.57
61296;BME280;47168;48.104;20.730;2022-08-19T10:06:39;99477.59;;;33.63;35.21
61296;BME280;47168;48.104;20.730;2022-08-19T10:09:06;99472.44;;;33.97;34.49
61296;BME280;47168;48.104;20.730;2022-08-19T10:11:34;99480.06;;;34.67;33.49
61296;BME280;47168;48.104;20.730;2022-08-19T10:14:01;99469.69;;;34.54;32.68
61296;BME280;47168;48.104;20.730;2022-08-19T10:16:26;99475.38;;;34.88;32.67
61296;BME280;47168;48.104;20.730;2022-08-19T10:18:52;99468.53;;;34.81;34.09
61296;BME280;47168;48.104;20.730;2022-08-19T10:21:24;99473.03;;;35.76;32.74
61296;BME280;47168;48.104;20.730;2022-08-19T10:23:52;99465.06;;;35.35;31.29
61296;BME280;47168;48.104;20.730;2022-08-19T10:26:21;99464.69;;;34.71;33.28
61296;BME280;47168;48.104;20.730;2022-08-19T10:28:48;99467.13;;;34.94;33.21
61296;BME280;47168;48.104;20.730;2022-08-19T10:31:19;99473.31;;;35.70;30.71
61296;BME280;47168;48.104;20.730;2022-08-19T10:33:46;99478.09;;;35.93;29.97
61296;BME280;47168;48.104;20.730;2022-08-19T10:36:18;99472.84;;;36.02;29.83
61296;BME280;47168;48.104;20.730;2022-08-19T10:38:49;99472.34;;;34.95;31.68
61296;BME280;47168;48.104;20.730;2022-08-19T10:41:21;99474.72;;;35.12;31.55
61296;BME280;47168;48.104;20.730;2022-08-19T10:43:50;99481.94;;;35.97;29.67
61296;BME280;47168;48.104;20.730;2022-08-19T10:46:18;99487.84;;;36.44;28.77
61296;BME280;47168;48.104;20.730;2022-08-19T10:48:43;99485.06;;;36.49;29.48
61296;BME280;47168;48.104;20.730;2022-08-19T10:51:10;99478.75;;;35.80;30.15
61296;BME280;47168;48.104;20.730;2022-08-19T10:53:54;99480.47;;;36.05;29.69
61296;BME280;47168;48.104;20.730;2022-08-19T10:56:21;99472.28;;;36.64;29.77
61296;BME280;47168;48.104;20.730;2022-08-19T10:59:06;99475.63;;;36.31;29.81
61296;BME280;47168;48.104;20.730;2022-08-19T11:01:33;99485.88;;;36.50;28.98
61296;BME280;47168;48.104;20.730;2022-08-19T11:04:01;99479.88;;;37.20;27.33
61296;BME280;47168;48.104;20.730;2022-08-19T11:06:27;99477.31;;;37.29;26.78
61296;BME280;47168;48.104;20.730;2022-08-19T11:08:55;99477.53;;;37.08;27.64
61296;BME280;47168;48.104;20.730;2022-08-19T11:11:21;99472.53;;;37.35;27.27
61296;BME280;47168;48.104;20.730;2022-08-19T11:13:48;99463.59;;;37.62;27.07
61296;BME280;47168;48.104;20.730;2022-08-19T11:16:21;99457.97;;;37.53;26.83
61296;BME280;47168;48.104;20.730;2022-08-19T11:18:48;99459.06;;;36.90;27.91
61296;BME280;47168;48.104;20.730;2022-08-19T11:21:22;99450.00;;;36.89;27.30
61296;BME280;47168;48.104;20.730;2022-08-19T11:23:49;99438.16;;;37.32;28.03
61296;BME280;47168;48.104;20.730;2022-08-19T11:26:17;99437.03;;;37.90;25.96
61296;BME280;47168;48.104;20.730;2022-08-19T11:28:43;99438.03;;;37.61;26.62
61296;BME280;47168;48.104;20.730;2022-08-19T11:31:16;99433.81;;;37.07;26.78
61296;BME280;47168;48.104;20.730;2022-08-19T11:33:43;99427.63;;;37.20;27.18
61296;BME280;47168;48.104;20.730;2022-08-19T11:36:08;99423.59;;;37.13;28.52
61296;BME280;47168;48.104;20.730;2022-08-19T11:38:35;99419.41;;;37.15;26.63
61296;BME280;47168;48.104;20.730;2022-08-19T11:41:03;99421.91;;;36.68;27.87
61296;BME280;47168;48.104;20.730;2022-08-19T11:43:29;99423.38;;;36.61;28.04
61296;BME280;47168;48.104;20.730;2022-08-19T11:45:56;99424.47;;;37.08;28.86
61296;BME280;47168;48.104;20.730;2022-08-19T11:48:23;99422.06;;;37.44;26.88
61296;BME280;47168;48.104;20.730;2022-08-19T11:50:53;99413.34;;;37.56;26.11
61296;BME280;47168;48.104;20.730;2022-08-19T11:53:21;99405.28;;;37.60;26.83
61296;BME280;47168;48.104;20.730;2022-08-19T11:55:47;99400.94;;;37.92;26.00
61296;BME280;47168;48.104;20.730;2022-08-19T11:58:15;99399.91;;;37.88;26.53
61296;BME280;47168;48.104;20.730;2022-08-19T12:00:42;99396.13;;;37.64;26.57
61296;BME280;47168;48.104;20.730;2022-08-19T12:03:11;99384.88;;;37.66;27.12
61296;BME280;47168;48.104;20.730;2022-08-19T12:05:37;99370.06;;;37.05;27.34
61296;BME280;47168;48.104;20.730;2022-08-19T12:08:03;99395.50;;;37.35;26.69
61296;BME280;47168;48.104;20.730;2022-08-19T12:10:28;99388.06;;;37.54;27.00
61296;BME280;47168;48.104;20.730;2022-08-19T12:12:54;99394.72;;;37.67;26.79
61296;BME280;47168;48.104;20.730;2022-08-19T12:15:19;99397.00;;;38.12;25.13
61296;BME280;47168;48.104;20.730;2022-08-19T12:17:45;99401.81;;;38.20;25.84
61296;BME280;47168;48.104;20.730;2022-08-19T12:20:11;99393.94;;;37.48;26.33
61296;BME280;47168;48.104;20.730;2022-08-19T12:22:39;99391.78;;;37.44;26.62
61296;BME280;47168;48.104;20.730;2022-08-19T12:25:07;99388.13;;;37.68;26.38
61296;BME280;47168;48.104;20.730;2022-08-19T12:27:32;99385.59;;;37.72;27.92
61296;BME280;47168;48.104;20.730;2022-08-19T12:29:58;99385.31;;;37.87;26.57
61296;BME280;47168;48.104;20.730;2022-08-19T12:32:27;99384.44;;;37.21;27.44
61296;BME280;47168;48.104;20.730;2022-08-19T12:34:52;99385.91;;;37.32;26.74
61296;BME280;47168;48.104;20.730;2022-08-19T12:37:18;99389.88;;;37.02;27.20
61296;BME280;47168;48.104;20.730;2022-08-19T12:39:43;99384.16;;;37.17;27.27
61296;BME280;47168;48.104;20.730;2022-08-19T12:42:13;99379.25;;;37.19;26.52
61296;BME280;47168;48.104;20.730;2022-08-19T12:44:40;99372.88;;;37.57;26.35
61296;BME280;47168;48.104;20.730;2022-08-19T12:47:08;99365.13;;;37.78;26.29
61296;BME280;47168;48.104;20.730;2022-08-19T12:49:34;99373.09;;;38.07;26.86
61296;BME280;47168;48.104;20.730;2022-08-19T12:52:04;99366.75;;;37.60;26.83
61296;BME280;47168;48.104;20.730;2022-08-19T12:54:30;99374.22;;;37.40;26.82
61296;BME280;47168;48.104;20.730;2022-08-19T12:56:57;99379.88;;;37.11;27.09
61296;BME280;47168;48.104;20.730;2022-08-19T12:59:23;99362.16;;;37.22;25.81
61296;BME280;47168;48.104;20.730;2022-08-19T13:01:48;99359.66;;;36.83;26.81
61296;BME280;47168;48.104;20.730;2022-08-19T13:04:14;99351.78;;;36.28;27.63
61296;BME280;47168;48.104;20.730;2022-08-19T13:06:40;99345.56;;;36.17;28.09